createdAt,value
2018-06-19T00:01:06.691Z,4.90
2018-06-19T00:03:34.266Z,3.60
2018-06-19T00:06:01.867Z,4.00
2018-06-19T00:08:29.516Z,2.93
2018-06-19T00:10:57.071Z,4.23
2018-06-19T00:13:24.621Z,3.90
2018-06-19T00:15:52.212Z,3.07
2018-06-19T00:18:23.582Z,3.97
2018-06-19T00:20:52.478Z,3.83
2018-06-19T00:23:20.082Z,3.90
2018-06-19T00:25:47.646Z,4.10
2018-06-19T00:28:16.309Z,2.80
2018-06-19T00:30:43.849Z,2.37
2018-06-19T00:33:11.498Z,4.27
2018-06-19T00:35:39.010Z,2.57
2018-06-19T00:38:06.734Z,2.40
2018-06-19T00:40:34.308Z,4.30
2018-06-19T00:43:01.939Z,3.53
2018-06-19T00:45:29.489Z,3.33
2018-06-19T00:47:57.079Z,3.30
2018-06-19T00:50:24.651Z,3.80
2018-06-19T00:52:52.203Z,5.10
2018-06-19T00:55:19.738Z,2.60
2018-06-19T00:57:47.355Z,4.50
2018-06-19T01:00:14.714Z,7.87
2018-06-19T01:02:42.140Z,7.60
2018-06-19T01:05:09.675Z,3.37
2018-06-19T01:07:37.035Z,4.43
2018-06-19T01:10:04.435Z,3.07
2018-06-19T01:12:31.955Z,3.20
2018-06-19T01:14:59.292Z,3.83
2018-06-19T01:17:26.813Z,4.43
2018-06-19T01:19:54.174Z,3.23
2018-06-19T01:22:21.691Z,3.37
2018-06-19T01:24:50.540Z,3.17
2018-06-19T01:27:17.891Z,2.80
2018-06-19T01:29:45.267Z,4.90
2018-06-19T01:32:12.634Z,2.70
2018-06-19T01:34:40.169Z,3.43
2018-06-19T01:37:07.562Z,3.20
2018-06-19T01:39:34.985Z,3.53
2018-06-19T01:42:02.374Z,4.53
2018-06-19T01:44:29.722Z,4.57
2018-06-19T01:46:57.096Z,2.43
2018-06-19T01:49:24.463Z,5.47
2018-06-19T01:51:51.816Z,3.33
2018-06-19T01:54:19.201Z,6.90
2018-06-19T01:56:46.571Z,6.80
2018-06-19T01:59:14.003Z,3.17
2018-06-19T02:01:41.315Z,5.70
2018-06-19T02:04:08.780Z,5.60
2018-06-19T02:06:36.188Z,4.33
2018-06-19T02:09:06.063Z,4.63
2018-06-19T02:11:33.442Z,3.53
2018-06-19T02:14:00.785Z,3.80
2018-06-19T02:16:28.120Z,5.30
2018-06-19T02:18:55.613Z,4.00
2018-06-19T02:21:23.057Z,3.90
2018-06-19T02:23:50.402Z,4.07
2018-06-19T02:26:17.827Z,3.50
2018-06-19T02:28:45.147Z,5.50
2018-06-19T02:31:12.454Z,3.43
2018-06-19T02:33:39.814Z,3.23
2018-06-19T02:36:07.174Z,4.97
2018-06-19T02:38:34.525Z,5.67
2018-06-19T02:41:01.877Z,5.53
2018-06-19T02:43:29.338Z,3.50
2018-06-19T02:45:56.646Z,6.20
2018-06-19T02:48:24.026Z,4.77
2018-06-19T02:50:51.424Z,5.43
2018-06-19T02:53:18.801Z,4.87
2018-06-19T02:55:46.149Z,3.57
2018-06-19T02:58:13.502Z,3.93
2018-06-19T03:00:40.890Z,3.43
2018-06-19T03:03:08.348Z,4.33
2018-06-19T03:05:35.699Z,3.93
2018-06-19T03:08:03.053Z,6.70
2018-06-19T03:10:30.488Z,3.90
2018-06-19T03:12:58.137Z,3.90
2018-06-19T03:15:25.641Z,4.00
2018-06-19T03:17:53.148Z,5.97
2018-06-19T03:20:20.483Z,6.53
2018-06-19T03:22:48.121Z,6.37
2018-06-19T03:25:15.522Z,5.60
2018-06-19T03:27:43.708Z,6.27
2018-06-19T03:30:11.128Z,6.93
2018-06-19T03:32:38.449Z,8.77
2018-06-19T03:35:05.867Z,6.27
2018-06-19T03:37:33.202Z,4.80
2018-06-19T03:40:00.575Z,5.40
2018-06-19T03:42:27.995Z,5.27
2018-06-19T03:44:55.594Z,6.60
2018-06-19T03:47:22.919Z,7.20
2018-06-19T03:49:50.252Z,8.23
2018-06-19T03:52:17.760Z,4.50
2018-06-19T03:54:45.226Z,7.43
2018-06-19T03:57:12.593Z,5.97
2018-06-19T03:59:39.923Z,4.90
2018-06-19T04:02:07.325Z,4.53
2018-06-19T04:04:34.807Z,8.40
2018-06-19T04:07:02.256Z,5.63
2018-06-19T04:09:29.590Z,5.03
2018-06-19T04:11:57.070Z,6.93
2018-06-19T04:14:24.828Z,8.50
2018-06-19T04:16:52.374Z,5.40
2018-06-19T04:19:19.802Z,5.37
2018-06-19T04:21:47.180Z,6.30
2018-06-19T04:24:14.584Z,5.60
2018-06-19T04:26:41.918Z,9.20
2018-06-19T04:29:09.325Z,8.70
2018-06-19T04:31:36.994Z,6.90
2018-06-19T04:34:04.367Z,8.50
2018-06-19T04:36:31.722Z,3.13
2018-06-19T04:38:59.046Z,7.30
2018-06-19T04:41:26.512Z,8.80
2018-06-19T04:43:53.847Z,6.33
2018-06-19T04:46:21.167Z,5.23
2018-06-19T04:48:48.507Z,9.00
2018-06-19T04:51:15.822Z,6.10
2018-06-19T04:53:43.177Z,8.20
2018-06-19T04:56:10.617Z,8.73
2018-06-19T04:58:38.064Z,6.80
2018-06-19T05:01:05.623Z,6.83
2018-06-19T05:03:32.997Z,7.53
2018-06-19T05:06:00.354Z,9.27
2018-06-19T05:08:27.719Z,8.77
2018-06-19T05:10:55.195Z,6.90
2018-06-19T05:13:22.629Z,6.97
2018-06-19T05:15:50.094Z,7.00
2018-06-19T05:18:17.682Z,8.10
2018-06-19T05:20:45.907Z,11.33
2018-06-19T05:23:13.402Z,10.97
2018-06-19T05:25:42.072Z,8.90
2018-06-19T05:28:09.602Z,9.83
2018-06-19T05:30:37.031Z,9.80
2018-06-19T05:33:04.530Z,9.90
2018-06-19T05:35:31.975Z,9.97
2018-06-19T05:37:59.443Z,10.30
2018-06-19T05:40:26.871Z,13.47
2018-06-19T05:42:54.714Z,16.07
2018-06-19T05:45:22.051Z,10.20
2018-06-19T05:47:49.574Z,14.23
2018-06-19T05:50:16.994Z,12.10
2018-06-19T05:52:44.626Z,13.07
2018-06-19T05:55:11.979Z,13.80
2018-06-19T05:57:39.335Z,13.20
2018-06-19T06:00:06.935Z,14.73
2018-06-19T06:02:34.578Z,17.10
2018-06-19T06:05:02.022Z,13.40
2018-06-19T06:07:29.403Z,14.43
2018-06-19T06:09:56.885Z,14.30
2018-06-19T06:12:24.245Z,14.93
2018-06-19T06:14:51.778Z,13.20
2018-06-19T06:17:19.127Z,13.50
2018-06-19T06:19:46.535Z,11.67
2018-06-19T06:22:13.867Z,16.00
2018-06-19T06:24:41.538Z,15.40
2018-06-19T06:27:09.192Z,9.57
2018-06-19T06:29:36.586Z,11.97
2018-06-19T06:32:03.950Z,15.20
2018-06-19T06:34:31.362Z,12.50
2018-06-19T06:36:58.824Z,15.83
2018-06-19T06:39:26.134Z,14.80
2018-06-19T06:41:53.502Z,16.93
2018-06-19T06:44:20.863Z,12.40
2018-06-19T06:46:48.286Z,13.30
2018-06-19T06:49:15.713Z,16.70
2018-06-19T06:51:43.071Z,14.83
2018-06-19T06:54:10.978Z,17.40
2018-06-19T06:56:39.106Z,12.83
2018-06-19T06:59:06.512Z,13.77
2018-06-19T07:01:33.846Z,16.80
2018-06-19T07:04:01.264Z,14.13
2018-06-19T07:06:29.242Z,14.40
2018-06-19T07:08:56.597Z,14.77
2018-06-19T07:11:23.970Z,13.80
2018-06-19T07:13:51.367Z,16.23
2018-06-19T07:16:19.064Z,16.50
2018-06-19T07:18:46.899Z,13.77
2018-06-19T07:21:14.252Z,14.30
2018-06-19T07:23:41.622Z,14.37
2018-06-19T07:26:09.160Z,21.50
2018-06-19T07:28:36.506Z,17.67
2018-06-19T07:31:04.031Z,16.93
2018-06-19T07:33:32.928Z,14.60
2018-06-19T07:36:00.299Z,17.33
2018-06-19T07:38:27.764Z,16.43
2018-06-19T07:40:55.146Z,12.93
2018-06-19T07:43:22.635Z,21.17
2018-06-19T07:45:50.111Z,15.67
2018-06-19T07:48:21.165Z,16.27
2018-06-19T07:50:58.919Z,18.67
2018-06-19T07:53:26.250Z,17.23
2018-06-19T07:55:53.620Z,15.33
2018-06-19T07:58:21.060Z,16.00
2018-06-19T08:00:48.406Z,14.20
2018-06-19T08:03:15.829Z,17.77
2018-06-19T08:05:43.176Z,16.53
2018-06-19T08:08:10.649Z,13.60
2018-06-19T08:10:38.087Z,16.90
2018-06-19T08:13:05.497Z,23.30
2018-06-19T08:15:32.859Z,17.77
2018-06-19T08:18:00.210Z,19.43
2018-06-19T08:20:27.547Z,20.80
2018-06-19T08:22:55.066Z,22.47
2018-06-19T08:25:22.399Z,21.20
2018-06-19T08:27:49.734Z,20.87
2018-06-19T08:30:17.066Z,19.13
2018-06-19T08:32:44.402Z,22.47
2018-06-19T08:35:11.867Z,23.20
2018-06-19T08:37:39.179Z,22.53
2018-06-19T08:40:06.815Z,21.67
2018-06-19T08:42:34.233Z,26.23
2018-06-19T08:45:01.610Z,25.57
2018-06-19T08:47:29.021Z,27.53
2018-06-19T08:49:56.382Z,22.70
2018-06-19T08:52:23.739Z,25.20
2018-06-19T08:54:51.233Z,24.13
2018-06-19T08:57:18.612Z,26.33
2018-06-19T08:59:46.011Z,27.03
2018-06-19T09:02:13.367Z,23.23
2018-06-19T09:04:40.782Z,25.10
2018-06-19T09:07:08.367Z,18.87
2018-06-19T09:09:35.730Z,21.47
2018-06-19T09:12:03.189Z,21.83
2018-06-19T09:14:30.560Z,22.23
2018-06-19T09:16:58.038Z,21.07
2018-06-19T09:19:29.797Z,19.87
2018-06-19T09:21:57.181Z,16.10
2018-06-19T09:24:24.686Z,16.90
2018-06-19T09:26:52.226Z,17.47
2018-06-19T09:29:19.604Z,17.43
2018-06-19T09:31:47.006Z,17.43
2018-06-19T09:34:15.979Z,17.60
2018-06-19T09:36:43.352Z,15.10
2018-06-19T09:39:12.603Z,16.20
2018-06-19T09:41:40.051Z,15.10
2018-06-19T09:44:07.539Z,15.03
2018-06-19T09:46:34.987Z,15.77
2018-06-19T09:49:07.610Z,15.07
2018-06-19T09:51:35.337Z,16.37
2018-06-19T09:54:02.761Z,13.03
2018-06-19T09:56:30.191Z,12.67
2018-06-19T09:58:57.727Z,15.03
2018-06-19T10:01:28.232Z,11.90
2018-06-19T10:03:55.587Z,14.70
2018-06-19T10:06:23.111Z,13.80
2018-06-19T10:08:50.413Z,12.77
2018-06-19T10:11:17.825Z,16.10
2018-06-19T10:13:50.015Z,14.67
2018-06-19T10:16:17.632Z,16.70
2018-06-19T10:18:44.986Z,16.87
2018-06-19T10:21:12.385Z,18.27
2018-06-19T10:23:39.782Z,17.93
2018-06-19T10:26:07.302Z,22.23
2018-06-19T10:28:36.811Z,18.33
2018-06-19T10:31:04.227Z,19.30
2018-06-19T10:33:31.598Z,22.43
2018-06-19T10:35:59.023Z,21.50
2018-06-19T10:38:26.392Z,25.60
2018-06-19T10:40:58.585Z,26.47
2018-06-19T10:43:25.979Z,28.53
2018-06-19T10:45:53.408Z,31.07
2018-06-19T10:48:20.790Z,29.67
2018-06-19T10:50:48.181Z,28.80
2018-06-19T10:53:15.629Z,33.80
2018-06-19T10:55:46.274Z,34.83
2018-06-19T10:58:13.602Z,32.40
2018-06-19T11:00:41.146Z,34.30
2018-06-19T11:03:08.580Z,32.83
2018-06-19T11:05:36.051Z,31.83
2018-06-19T11:08:03.467Z,36.33
2018-06-19T11:10:33.278Z,36.17
2018-06-19T11:13:00.656Z,37.90
2018-06-19T11:15:28.061Z,37.87
2018-06-19T11:17:55.509Z,35.40
2018-06-19T11:20:22.892Z,36.87
2018-06-19T11:22:55.243Z,36.70
2018-06-19T11:25:22.625Z,37.70
2018-06-19T11:27:49.976Z,35.00
2018-06-19T11:30:17.374Z,33.60
2018-06-19T11:32:44.739Z,31.23
2018-06-19T11:35:12.138Z,34.73
2018-06-19T11:37:41.351Z,32.90
2018-06-19T11:40:08.928Z,32.33
2018-06-19T11:42:36.453Z,29.07
2018-06-19T11:45:03.900Z,33.87
2018-06-19T11:47:31.247Z,29.20
2018-06-19T11:49:58.618Z,29.40
2018-06-19T11:52:31.533Z,27.53
2018-06-19T11:54:58.899Z,33.33
2018-06-19T11:57:26.415Z,29.80
2018-06-19T11:59:53.783Z,30.17
2018-06-19T12:02:21.139Z,30.03
2018-06-19T12:04:48.480Z,28.63
2018-06-19T12:07:18.938Z,28.43
2018-06-19T12:09:46.305Z,28.70
2018-06-19T12:12:13.646Z,27.53
2018-06-19T12:14:44.024Z,24.97
2018-06-19T12:17:11.799Z,24.27
2018-06-19T12:19:42.297Z,21.43
2018-06-19T12:22:09.743Z,21.97
2018-06-19T12:24:37.114Z,23.23
2018-06-19T12:27:05.592Z,21.80
2018-06-19T12:29:33.049Z,22.00
2018-06-19T12:32:00.395Z,22.30
2018-06-19T12:34:29.399Z,23.77
2018-06-19T12:36:56.801Z,20.60
2018-06-19T12:39:24.136Z,21.10
2018-06-19T12:41:51.507Z,18.97
2018-06-19T12:44:18.850Z,19.20
2018-06-19T12:46:46.288Z,18.10
2018-06-19T12:49:24.971Z,17.03
2018-06-19T12:52:03.989Z,17.37
2018-06-19T12:54:45.523Z,18.13
2018-06-19T12:57:13.043Z,14.50
2018-06-19T12:59:40.427Z,17.03
2018-06-19T13:02:07.970Z,17.07
2018-06-19T13:04:46.857Z,18.43
2018-06-19T13:07:14.228Z,18.27
2018-06-19T13:09:41.601Z,17.27
2018-06-19T13:12:23.874Z,18.80
2018-06-19T13:14:51.502Z,17.73
2018-06-19T13:17:30.693Z,17.27
2018-06-19T13:20:09.702Z,17.13
2018-06-19T13:22:37.662Z,18.53
2018-06-19T13:25:05.231Z,16.90
2018-06-19T13:27:32.760Z,15.27
2018-06-19T13:30:11.667Z,15.40
2018-06-19T13:32:39.545Z,14.50
2018-06-19T13:35:07.243Z,13.77
2018-06-19T13:37:34.815Z,12.53
2018-06-19T13:41:15.582Z,12.40
2018-06-19T13:43:55.029Z,12.10
2018-06-19T13:46:22.416Z,11.00
2018-06-19T13:48:49.769Z,11.77
2018-06-19T13:51:17.226Z,12.00
2018-06-19T13:53:44.997Z,11.53
2018-06-19T13:57:28.894Z,16.03
2018-06-19T13:59:57.001Z,11.17
2018-06-19T14:02:24.583Z,11.40
2018-06-19T14:04:52.140Z,11.27
2018-06-19T14:07:20.620Z,12.80
2018-06-19T14:09:59.695Z,10.80
2018-06-19T14:12:39.387Z,11.03
2018-06-19T14:15:06.995Z,8.90
2018-06-19T14:17:35.297Z,12.00
2018-06-19T14:20:03.156Z,8.60
2018-06-19T14:22:30.764Z,6.40
2018-06-19T14:24:58.851Z,6.57
2018-06-19T14:27:26.408Z,5.60
2018-06-19T14:29:53.976Z,6.10
2018-06-19T14:32:21.563Z,7.70
2018-06-19T14:34:49.147Z,6.10
2018-06-19T14:37:16.804Z,7.10
2018-06-19T14:39:44.627Z,7.00
2018-06-19T14:42:12.464Z,7.00
2018-06-19T14:44:42.966Z,7.80
2018-06-19T14:47:10.560Z,8.00
2018-06-19T14:49:38.150Z,7.00
2018-06-19T14:52:05.729Z,7.53
2018-06-19T14:54:33.340Z,8.00
2018-06-19T14:57:00.903Z,7.20
2018-06-19T14:59:31.654Z,7.23
2018-06-19T15:01:59.280Z,6.93
2018-06-19T15:04:26.819Z,7.80
2018-06-19T15:06:54.371Z,9.10
2018-06-19T15:09:21.970Z,7.20
2018-06-19T15:11:49.563Z,6.70
2018-06-19T15:14:17.124Z,8.10
2018-06-19T15:16:44.843Z,6.97
2018-06-19T15:19:12.515Z,7.53
2018-06-19T15:21:40.190Z,6.50
2018-06-19T15:24:07.899Z,9.27
2018-06-19T15:26:35.427Z,7.80
2018-06-19T15:29:03.013Z,8.70
2018-06-19T15:31:30.570Z,8.47
2018-06-19T15:33:58.155Z,7.67
2018-06-19T15:36:25.694Z,8.50
2018-06-19T15:38:53.285Z,8.73
2018-06-19T15:41:20.898Z,9.37
2018-06-19T15:43:49.172Z,10.60
2018-06-19T15:46:20.186Z,10.17
2018-06-19T15:48:48.849Z,9.70
2018-06-19T15:51:16.428Z,9.40
2018-06-19T15:53:44.030Z,9.03
2018-06-19T15:56:11.884Z,9.40
2018-06-19T15:58:40.156Z,8.37
2018-06-19T16:01:09.052Z,6.70
2018-06-19T16:03:36.628Z,7.33
2018-06-19T16:06:04.170Z,7.40
2018-06-19T16:08:31.690Z,6.43
2018-06-19T16:10:59.326Z,5.80
2018-06-19T16:13:26.937Z,7.23
2018-06-19T16:15:57.378Z,7.80
2018-06-19T16:18:24.980Z,7.10
2018-06-19T16:20:52.524Z,6.93
2018-06-19T16:23:20.123Z,6.03
2018-06-19T16:25:47.682Z,5.77
2018-06-19T16:28:15.261Z,6.17
2018-06-19T16:30:42.810Z,6.23
2018-06-19T16:33:11.467Z,11.90
2018-06-19T16:35:39.132Z,7.50
2018-06-19T16:38:06.748Z,7.77
2018-06-19T16:40:34.332Z,7.40
2018-06-19T16:43:02.074Z,7.70
2018-06-19T16:45:29.744Z,10.00
2018-06-19T16:48:01.128Z,7.27
2018-06-19T16:50:28.687Z,6.60
2018-06-19T16:52:56.264Z,7.90
2018-06-19T16:55:23.836Z,8.00
2018-06-19T16:57:51.363Z,7.63
2018-06-19T17:00:23.677Z,8.67
2018-06-19T17:02:51.250Z,8.37
2018-06-19T17:05:18.823Z,8.60
2018-06-19T17:07:46.413Z,10.80
2018-06-19T17:10:14.354Z,9.90
2018-06-19T17:12:47.247Z,11.23
2018-06-19T17:15:14.801Z,9.03
2018-06-19T17:17:42.377Z,9.73
2018-06-19T17:20:09.963Z,9.67
2018-06-19T17:22:37.699Z,9.00
2018-06-19T17:25:05.319Z,8.23
2018-06-19T17:27:34.286Z,9.40
2018-06-19T17:30:01.912Z,9.20
2018-06-19T17:32:29.519Z,10.37
2018-06-19T17:34:57.082Z,9.60
2018-06-19T17:37:24.642Z,10.60
2018-06-19T17:39:56.358Z,11.43
2018-06-19T17:42:24.018Z,11.43
2018-06-19T17:44:51.574Z,10.30
2018-06-19T17:47:19.106Z,11.20
2018-06-19T17:49:46.642Z,10.80
2018-06-19T17:52:14.286Z,10.77
2018-06-19T17:54:43.962Z,10.27
2018-06-19T17:57:11.667Z,10.07
2018-06-19T17:59:39.196Z,9.50
2018-06-19T18:02:07.543Z,9.60
2018-06-19T18:04:35.021Z,9.57
2018-06-19T18:07:06.392Z,9.93
2018-06-19T18:09:34.100Z,9.67
2018-06-19T18:12:01.715Z,8.80
2018-06-19T18:14:29.197Z,8.73
2018-06-19T18:16:56.741Z,8.07
2018-06-19T18:19:24.264Z,8.20
2018-06-19T18:21:56.016Z,8.53
2018-06-19T18:24:23.608Z,7.30
2018-06-19T18:26:51.147Z,6.53
2018-06-19T18:29:18.865Z,8.03
2018-06-19T18:31:46.381Z,6.83
2018-06-19T18:34:13.926Z,6.60
2018-06-19T18:36:46.424Z,7.37
2018-06-19T18:39:14.655Z,7.07
2018-06-19T18:41:42.200Z,6.87
2018-06-19T18:44:09.836Z,6.40
2018-06-19T18:46:37.452Z,7.43
2018-06-19T18:49:08.099Z,7.80
2018-06-19T18:51:35.749Z,6.60
2018-06-19T18:54:03.374Z,7.53
2018-06-19T18:56:30.879Z,5.90
2018-06-19T18:58:58.443Z,8.73
2018-06-19T19:01:31.130Z,6.60
2018-06-19T19:03:58.674Z,7.63
2018-06-19T19:06:26.288Z,6.00
2018-06-19T19:08:54.181Z,6.47
2018-06-19T19:11:21.766Z,6.83
2018-06-19T19:13:51.800Z,5.80
2018-06-19T19:16:27.963Z,7.00
2018-06-19T19:19:00.782Z,12.20
2018-06-19T19:21:29.270Z,7.70
2018-06-19T19:24:00.547Z,6.70
2018-06-19T19:26:33.894Z,6.90
2018-06-19T19:29:07.226Z,7.03
2018-06-19T19:31:39.737Z,6.83
2018-06-19T19:34:07.431Z,7.07
2018-06-19T19:36:40.770Z,8.50
2018-06-19T19:39:18.146Z,6.77
2018-06-19T19:41:45.891Z,7.40
2018-06-19T19:44:13.518Z,7.10
2018-06-19T19:46:46.841Z,7.60
2018-06-19T19:49:14.445Z,8.17
2018-06-19T19:51:43.798Z,10.83
2018-06-19T19:54:11.664Z,10.33
2018-06-19T19:56:45.790Z,7.77
2018-06-19T19:59:13.461Z,11.00
2018-06-19T20:01:44.495Z,9.33
2018-06-19T20:04:12.108Z,8.27
2018-06-19T20:06:39.703Z,9.60
2018-06-19T20:09:08.250Z,8.77
2018-06-19T20:11:35.828Z,8.83
2018-06-19T20:14:09.931Z,7.73
2018-06-19T20:16:37.499Z,8.37
2018-06-19T20:19:05.183Z,9.10
2018-06-19T20:21:33.007Z,7.73
2018-06-19T20:24:00.574Z,8.00
2018-06-19T20:26:32.952Z,11.03
2018-06-19T20:29:00.496Z,8.13
2018-06-19T20:31:28.039Z,9.13
2018-06-19T20:33:55.657Z,7.73
2018-06-19T20:36:23.293Z,8.20
2018-06-19T20:38:50.942Z,8.53
2018-06-19T20:41:18.610Z,8.40
2018-06-19T20:43:48.163Z,10.20
2018-06-19T20:46:15.690Z,8.70
2018-06-19T20:48:43.254Z,7.63
2018-06-19T20:51:10.908Z,9.53
2018-06-19T20:53:39.339Z,10.10
2018-06-19T20:56:07.775Z,9.40
2018-06-19T20:58:36.788Z,8.33
2018-06-19T21:01:04.391Z,7.53
2018-06-19T21:03:32.096Z,7.50
2018-06-19T21:05:59.818Z,10.67
2018-06-19T21:08:33.089Z,8.30
2018-06-19T21:11:05.316Z,9.23
2018-06-19T21:13:32.943Z,11.63
2018-06-19T21:16:00.601Z,9.43
2018-06-19T21:18:28.257Z,11.57
2018-06-19T21:20:55.927Z,11.90
2018-06-19T21:23:23.482Z,13.50
2018-06-19T21:25:57.529Z,12.03
2018-06-19T21:28:25.095Z,12.77
2018-06-19T21:30:52.831Z,13.47
2018-06-19T21:33:20.474Z,12.47
2018-06-19T21:35:48.173Z,12.57
2018-06-19T21:38:20.856Z,12.80
2018-06-19T21:40:48.689Z,13.50
2018-06-19T21:43:16.322Z,11.30
2018-06-19T21:45:43.920Z,15.00
2018-06-19T21:48:11.458Z,13.97
2018-06-19T21:50:39.018Z,13.00
2018-06-19T21:53:06.592Z,13.40
2018-06-19T21:55:34.191Z,12.83
2018-06-19T21:58:01.812Z,16.00
2018-06-19T22:00:29.341Z,14.60
2018-06-19T22:02:56.932Z,12.97
2018-06-19T22:05:24.497Z,13.83
2018-06-19T22:07:52.006Z,15.50
2018-06-19T22:10:19.562Z,12.97
2018-06-19T22:12:47.131Z,12.37
2018-06-19T22:15:14.692Z,12.00
2018-06-19T22:17:42.302Z,14.70
2018-06-19T22:20:09.934Z,17.90
2018-06-19T22:22:37.577Z,12.20
2018-06-19T22:25:05.131Z,14.63
2018-06-19T22:27:32.759Z,15.87
2018-06-19T22:30:00.378Z,13.30
2018-06-19T22:32:27.919Z,13.63
2018-06-19T22:34:55.476Z,12.03
2018-06-19T22:37:23.117Z,12.27
2018-06-19T22:39:50.692Z,13.53
2018-06-19T22:42:18.285Z,14.30
2018-06-19T22:44:45.880Z,13.00
2018-06-19T22:47:13.474Z,14.70
2018-06-19T22:49:40.987Z,13.10
2018-06-19T22:52:08.956Z,13.73
2018-06-19T22:54:36.682Z,14.03
2018-06-19T22:57:04.321Z,14.53
2018-06-19T22:59:31.871Z,14.10
2018-06-19T23:01:59.447Z,14.30
2018-06-19T23:04:27.027Z,16.07
2018-06-19T23:06:54.563Z,15.57
2018-06-19T23:09:22.071Z,14.10
2018-06-19T23:11:49.610Z,13.40
2018-06-19T23:14:18.721Z,14.73
2018-06-19T23:16:46.266Z,14.87
2018-06-19T23:19:13.793Z,15.90
2018-06-19T23:21:42.122Z,18.17
2018-06-19T23:24:09.726Z,13.30
2018-06-19T23:26:42.175Z,13.93
2018-06-19T23:29:09.861Z,14.37
2018-06-19T23:31:37.374Z,14.70
2018-06-19T23:34:05.010Z,15.07
2018-06-19T23:36:32.561Z,13.00
2018-06-19T23:39:00.075Z,12.37
2018-06-19T23:41:32.546Z,12.70
2018-06-19T23:44:00.144Z,11.67
2018-06-19T23:46:27.807Z,11.33
2018-06-19T23:48:55.376Z,11.57
2018-06-19T23:51:22.910Z,10.90
2018-06-19T23:53:59.165Z,11.00
2018-06-19T23:56:26.694Z,11.63
2018-06-19T23:58:54.271Z,12.00
